Airfield :
LOGIN :

Register | Disclaimer

   EN    FR    IT 

 










Legend :    VFR   Marginal VFR   IFR   Intensive IFR   Very Intensive IFR
Visi :
Ceiling :
>= 8 km
>= 3000ft
5 to 8 km
1000 to 3000 ft
1500m to 5 km
500 to 1000 ft
800 to 1500m
200 to 500 ft
< 800m
< 200 ft
Symbols :   Thunderstorms  Fog  Heavy snow  Heavy precipitations  Wind > 20 kt
SIGMETs :     Misc.  Thunderstorms  Icing  Turbulence  Mountain Waves  Volcanic Ashes






- Airport Elevation : 74 ft
- IATA code : LRH


LFBH - La Rochelle Ile de Ré

CURRENT METAR :
  • 081800Z AUTO 31008KT CAVOK 23/20 Q1017 TEMPO BKN003

EXPIRED METARs :
  • 081730Z AUTO 26005KT 210V290 CAVOK 25/20 Q1017 TEMPO BKN003
  • 081700Z AUTO 25005KT 200V280 CAVOK 25/20 Q1017 TEMPO BKN003
  • 081630Z AUTO 24008KT 210V270 CAVOK 25/20 Q1017 TEMPO BKN003
  • 081600Z AUTO 22012KT CAVOK 25/19 Q1018 TEMPO 30010KT BKN003
  • 081530Z AUTO 21009KT 190V260 CAVOK 26/19 Q1018 TEMPO BKN003

TAF TAF LFBH
Valid from the 08 at 18:00 until the 09 at 18:00 UTC


081700Z 0818/0918 23008KT CAVOK
PROB30
TEMPO 0818/0820 30010KT BKN003
TEMPO 0911/0918 30010KT BKN100TCU
ATIS : +33 5 46 00 13 92



MET'MAP, your aeronautical weather chart ! - Copyright ORBIFLY December 2007 - Disclaimer

ORBIFLY MET'MAP TEAM :

Programming & Development : Alexandra Zaïnal
Concept & original design : Baudouin d'Aumeries
Assistance for programming : Marc-Olivier Méhu
Technical & hardware support : Manuel Goepfert

Contact : metmap@orbifly.com




SOURCES & CREDITS :

   NOAA